createdAt,value
2022-10-05T00:00:51.176Z,13.89
2022-10-05T00:03:25.301Z,13.90
2022-10-05T00:05:57.585Z,13.91
2022-10-05T00:08:33.937Z,13.92
2022-10-05T00:11:07.210Z,13.91
2022-10-05T00:13:42.536Z,13.89
2022-10-05T00:16:17.744Z,13.89
2022-10-05T00:18:51.381Z,13.88
2022-10-05T00:21:25.305Z,13.87
2022-10-05T00:23:57.931Z,13.86
2022-10-05T00:26:32.883Z,13.84
2022-10-05T00:29:26.998Z,13.85
2022-10-05T00:32:00.370Z,13.87
2022-10-05T00:34:33.839Z,13.87
2022-10-05T00:37:06.458Z,13.86
2022-10-05T00:39:39.284Z,13.87
2022-10-05T00:42:22.273Z,13.86
2022-10-05T00:44:58.188Z,13.87
2022-10-05T00:48:02.218Z,13.89
2022-10-05T00:50:49.872Z,13.89
2022-10-05T00:53:34.839Z,13.88
2022-10-05T00:56:25.718Z,13.85
2022-10-05T00:58:58.176Z,13.84
2022-10-05T01:01:50.801Z,13.83
2022-10-05T01:04:37.185Z,13.83
2022-10-05T01:07:32.380Z,13.82
2022-10-05T01:10:23.552Z,13.80
2022-10-05T01:13:08.978Z,13.80
2022-10-05T01:15:49.612Z,13.77
2022-10-05T01:18:38.648Z,13.77
2022-10-05T01:21:17.464Z,13.76
2022-10-05T01:24:07.156Z,13.78
2022-10-05T01:26:54.469Z,13.79
2022-10-05T01:29:36.036Z,13.78
2022-10-05T01:32:08.420Z,13.79
2022-10-05T01:34:49.859Z,13.74
2022-10-05T01:37:28.309Z,13.73
2022-10-05T01:40:18.890Z,13.76
2022-10-05T01:43:00.012Z,13.79
2022-10-05T01:45:37.150Z,13.81
2022-10-05T01:48:18.250Z,13.81
2022-10-05T01:51:17.448Z,13.83
2022-10-05T01:53:59.032Z,13.84
2022-10-05T01:56:31.504Z,13.86
2022-10-05T01:59:26.807Z,13.86
2022-10-05T02:02:01.782Z,13.87
2022-10-05T02:05:00.995Z,13.87
2022-10-05T02:07:32.586Z,13.87
2022-10-05T02:10:08.979Z,13.87
2022-10-05T02:12:42.827Z,13.87
2022-10-05T02:15:18.600Z,13.87
2022-10-05T02:17:54.615Z,13.86
2022-10-05T02:20:29.784Z,13.82
2022-10-05T02:23:04.854Z,13.80
2022-10-05T02:25:39.298Z,13.80
2022-10-05T02:28:18.257Z,13.79
2022-10-05T02:31:00.932Z,13.77
2022-10-05T02:33:33.792Z,13.77
2022-10-05T02:36:15.889Z,13.79
2022-10-05T02:39:14.674Z,13.77
2022-10-05T02:41:53.010Z,13.75
2022-10-05T02:44:44.229Z,13.72
2022-10-05T02:47:16.497Z,13.72
2022-10-05T02:49:53.998Z,13.72
2022-10-05T02:52:29.168Z,13.70
2022-10-05T02:55:01.475Z,13.66
2022-10-05T02:57:47.650Z,13.61
2022-10-05T03:00:21.297Z,13.53
2022-10-05T03:03:13.818Z,13.49
2022-10-05T03:06:00.517Z,13.42
2022-10-05T03:08:35.798Z,13.33
2022-10-05T03:11:14.947Z,13.24
2022-10-05T03:13:50.673Z,13.18
2022-10-05T03:16:26.127Z,13.12
2022-10-05T03:19:04.787Z,13.04
2022-10-05T03:21:43.233Z,13.00
2022-10-05T03:24:15.782Z,13.01
2022-10-05T03:27:03.414Z,13.03
2022-10-05T03:29:42.312Z,13.06
2022-10-05T03:32:33.500Z,13.13
2022-10-05T03:35:05.774Z,13.18
2022-10-05T03:37:49.682Z,13.20
2022-10-05T03:40:29.464Z,13.24
2022-10-05T03:43:24.830Z,13.29
2022-10-05T03:46:21.549Z,13.29
2022-10-05T03:49:03.406Z,13.31
2022-10-05T03:51:39.280Z,13.32
2022-10-05T03:54:23.694Z,13.30
2022-10-05T03:57:00.602Z,13.31
2022-10-05T03:59:37.839Z,13.32
2022-10-05T04:02:18.276Z,13.33
2022-10-05T04:04:53.422Z,13.35
2022-10-05T04:07:43.567Z,13.35
2022-10-05T04:10:29.564Z,13.33
2022-10-05T04:13:07.399Z,13.34
2022-10-05T04:16:14.536Z,13.30
2022-10-05T04:19:09.447Z,13.31
2022-10-05T04:21:51.597Z,13.32
2022-10-05T04:24:26.774Z,13.30
2022-10-05T04:27:01.393Z,13.29
2022-10-05T04:29:43.857Z,13.27
2022-10-05T04:32:16.154Z,13.26
2022-10-05T04:34:48.442Z,13.27
2022-10-05T04:37:31.010Z,13.26
2022-10-05T04:40:26.175Z,13.27
2022-10-05T04:43:07.248Z,13.29
2022-10-05T04:45:45.807Z,13.31
2022-10-05T04:48:30.625Z,13.33
2022-10-05T04:51:09.350Z,13.33
2022-10-05T04:54:00.273Z,13.35
2022-10-05T04:56:38.538Z,13.37
2022-10-05T04:59:17.500Z,13.36
2022-10-05T05:02:01.026Z,13.38
2022-10-05T05:04:42.134Z,13.41
2022-10-05T05:07:26.780Z,13.42
2022-10-05T05:10:12.514Z,13.46
2022-10-05T05:12:55.247Z,13.44
2022-10-05T05:15:40.406Z,13.45
2022-10-05T05:18:31.798Z,13.46
2022-10-05T05:21:31.178Z,13.45
2022-10-05T05:24:09.265Z,13.45
2022-10-05T05:27:07.836Z,13.35
2022-10-05T05:29:54.854Z,13.47
2022-10-05T05:32:27.123Z,13.52
2022-10-05T05:35:05.601Z,13.49
2022-10-05T05:37:56.456Z,13.51
2022-10-05T05:40:33.447Z,13.53
2022-10-05T05:43:24.190Z,13.53
2022-10-05T05:46:00.643Z,13.57
2022-10-05T05:48:38.103Z,13.69
2022-10-05T05:51:36.636Z,13.68
2022-10-05T05:54:15.285Z,13.70
2022-10-05T05:57:13.892Z,13.76
2022-10-05T06:00:08.087Z,13.80
2022-10-05T06:02:43.521Z,13.82
2022-10-05T06:05:24.339Z,13.88
2022-10-05T06:07:57.866Z,13.88
2022-10-05T06:10:41.983Z,13.92
2022-10-05T06:13:37.619Z,13.96
2022-10-05T06:16:12.936Z,13.99
2022-10-05T06:18:48.168Z,14.07
2022-10-05T06:21:32.299Z,14.13
2022-10-05T06:24:21.200Z,14.12
2022-10-05T06:27:05.330Z,14.19
2022-10-05T06:29:43.471Z,14.22
2022-10-05T06:32:38.498Z,14.19
2022-10-05T06:35:17.798Z,14.24
2022-10-05T06:37:51.260Z,14.28
2022-10-05T06:40:43.880Z,14.33
2022-10-05T06:43:23.268Z,14.38
2022-10-05T06:46:18.285Z,14.34
2022-10-05T06:48:51.026Z,14.38
2022-10-05T06:51:43.875Z,14.39
2022-10-05T06:54:37.382Z,14.44
2022-10-05T06:57:15.659Z,14.53
2022-10-05T07:00:01.952Z,14.54
2022-10-05T07:02:46.443Z,14.63
2022-10-05T07:05:34.013Z,14.75
2022-10-05T07:08:29.778Z,14.77
2022-10-05T07:11:29.458Z,14.82
2022-10-05T07:14:19.794Z,14.90
2022-10-05T07:17:03.055Z,14.98
2022-10-05T07:19:45.643Z,15.04
2022-10-05T07:22:17.916Z,15.15
2022-10-05T07:25:08.795Z,15.28
2022-10-05T07:27:51.772Z,15.34
2022-10-05T07:30:24.561Z,15.37
2022-10-05T07:33:02.350Z,15.39
2022-10-05T07:36:05.399Z,15.45
2022-10-05T07:38:37.705Z,15.51
2022-10-05T07:41:31.509Z,15.54
2022-10-05T07:44:13.067Z,15.62
2022-10-05T07:46:54.712Z,15.67
2022-10-05T07:49:41.532Z,15.66
2022-10-05T07:52:34.630Z,15.75
2022-10-05T07:55:17.929Z,15.70
2022-10-05T07:58:05.267Z,15.72
2022-10-05T08:00:57.115Z,15.87
2022-10-05T08:03:38.326Z,15.89
2022-10-05T08:06:14.017Z,15.94
2022-10-05T08:09:09.813Z,15.95
2022-10-05T08:11:51.459Z,16.04
2022-10-05T08:14:26.048Z,16.12
2022-10-05T08:17:00.244Z,16.18
2022-10-05T08:19:39.709Z,16.34
2022-10-05T08:22:24.830Z,16.47
2022-10-05T08:25:03.530Z,16.63
2022-10-05T08:27:41.156Z,16.72
2022-10-05T08:30:15.695Z,16.80
2022-10-05T08:32:53.886Z,16.84
2022-10-05T08:35:38.623Z,16.88
2022-10-05T08:38:16.678Z,17.04
2022-10-05T08:41:05.039Z,17.13
2022-10-05T08:43:49.651Z,17.20
2022-10-05T08:46:42.503Z,17.28
2022-10-05T08:49:49.505Z,17.42
2022-10-05T08:52:40.700Z,17.30
2022-10-05T08:55:34.634Z,17.38
2022-10-05T08:58:39.171Z,17.36
2022-10-05T09:01:22.869Z,17.56
2022-10-05T09:03:58.195Z,17.71
2022-10-05T09:06:53.456Z,17.74
2022-10-05T09:09:32.086Z,17.85
2022-10-05T09:12:14.944Z,17.98
2022-10-05T09:15:20.561Z,17.97
2022-10-05T09:18:02.911Z,18.07
2022-10-05T09:20:43.481Z,18.10
2022-10-05T09:23:36.018Z,18.16
2022-10-05T09:26:08.917Z,18.11
2022-10-05T09:28:47.390Z,18.29
2022-10-05T09:31:42.812Z,18.23
2022-10-05T09:34:33.342Z,18.28
2022-10-05T09:37:17.496Z,18.32
2022-10-05T09:40:02.437Z,18.24
2022-10-05T09:42:44.452Z,18.18
2022-10-05T09:45:36.252Z,18.37
2022-10-05T09:48:25.891Z,18.45
2022-10-05T09:51:01.213Z,18.48
2022-10-05T09:53:52.366Z,18.76
2022-10-05T09:59:10.953Z,19.07
2022-10-05T10:01:43.349Z,18.81
2022-10-05T10:04:25.073Z,18.88
2022-10-05T10:07:03.541Z,19.23
2022-10-05T10:09:51.142Z,19.26
2022-10-05T10:12:29.404Z,19.39
2022-10-05T10:15:20.202Z,19.48
2022-10-05T10:18:14.775Z,19.51
2022-10-05T10:20:47.567Z,19.78
2022-10-05T10:23:49.793Z,19.99
2022-10-05T10:26:26.018Z,20.15
2022-10-05T10:29:05.371Z,19.48
2022-10-05T10:31:56.578Z,19.72
2022-10-05T10:34:49.787Z,19.97
2022-10-05T10:38:05.618Z,20.46
2022-10-05T10:40:44.596Z,20.24
2022-10-05T10:43:17.281Z,20.19
2022-10-05T10:45:56.676Z,20.45
2022-10-05T10:48:29.843Z,20.92
2022-10-05T10:51:18.475Z,20.75
2022-10-05T10:53:53.965Z,21.02
2022-10-05T10:56:36.290Z,21.04
2022-10-05T10:59:35.288Z,20.24
2022-10-05T11:02:07.769Z,20.51
2022-10-05T11:04:58.516Z,20.96
2022-10-05T11:07:43.240Z,21.83
2022-10-05T11:10:34.928Z,22.10
2022-10-05T11:13:27.431Z,21.47
2022-10-05T11:19:02.826Z,20.81
2022-10-05T11:21:53.538Z,20.54
2022-10-05T11:24:26.034Z,21.18
2022-10-05T11:27:08.249Z,20.61
2022-10-05T11:29:55.268Z,20.93
2022-10-05T11:32:48.570Z,21.30
2022-10-05T11:35:34.187Z,21.36
2022-10-05T11:38:31.460Z,21.77
2022-10-05T11:41:17.530Z,21.45
2022-10-05T11:44:06.159Z,21.23
2022-10-05T11:46:42.040Z,21.03
2022-10-05T11:49:14.376Z,20.73
2022-10-05T11:51:50.062Z,21.16
2022-10-05T11:54:38.306Z,23.17
2022-10-05T11:57:24.427Z,23.83
2022-10-05T12:00:01.191Z,23.11
2022-10-05T12:02:53.183Z,23.06
2022-10-05T12:05:32.981Z,23.62
2022-10-05T12:08:23.875Z,23.74
2022-10-05T12:11:08.110Z,22.10
2022-10-05T12:13:46.062Z,21.94
2022-10-05T12:16:26.989Z,21.75
2022-10-05T12:19:19.604Z,22.98
2022-10-05T12:21:55.776Z,22.51
2022-10-05T12:24:38.992Z,22.08
2022-10-05T12:27:16.309Z,22.68
2022-10-05T12:30:07.538Z,23.49
2022-10-05T12:32:55.883Z,23.95
2022-10-05T12:35:49.956Z,24.30
2022-10-05T12:38:26.938Z,24.66
2022-10-05T12:41:00.249Z,23.30
2022-10-05T12:43:32.923Z,22.31
2022-10-05T12:46:08.374Z,21.49
2022-10-05T12:48:49.198Z,21.22
2022-10-05T12:51:30.699Z,21.71
2022-10-05T12:54:03.210Z,23.24
2022-10-05T12:56:52.637Z,23.88
2022-10-05T12:59:45.751Z,23.52
2022-10-05T13:02:18.249Z,24.74
2022-10-05T13:05:04.386Z,24.27
2022-10-05T13:08:00.798Z,23.79
2022-10-05T13:10:51.427Z,21.84
2022-10-05T13:13:39.460Z,21.43
2022-10-05T13:16:18.658Z,22.38
2022-10-05T13:18:58.912Z,22.68
2022-10-05T13:21:48.832Z,23.67
2022-10-05T13:24:47.566Z,23.27
2022-10-05T13:27:19.840Z,22.05
2022-10-05T13:30:02.127Z,21.34
2022-10-05T13:32:36.713Z,21.13
2022-10-05T13:35:30.434Z,20.87
2022-10-05T13:38:05.950Z,20.73
2022-10-05T13:40:58.556Z,20.76
2022-10-05T13:43:39.357Z,20.91
2022-10-05T13:46:21.400Z,20.90
2022-10-05T13:49:05.920Z,20.84
2022-10-05T13:51:41.457Z,20.90
2022-10-05T13:54:13.720Z,20.62
2022-10-05T13:56:51.447Z,20.56
2022-10-05T13:59:33.135Z,20.51
2022-10-05T14:02:08.673Z,20.42
2022-10-05T14:04:51.978Z,20.53
2022-10-05T14:07:30.341Z,20.58
2022-10-05T14:10:04.647Z,20.76
2022-10-05T14:12:40.062Z,20.60
2022-10-05T14:15:19.821Z,20.53
2022-10-05T14:17:52.675Z,20.48
2022-10-05T14:20:26.755Z,20.54
2022-10-05T14:23:05.343Z,20.44
2022-10-05T14:25:50.166Z,20.54
2022-10-05T14:28:29.409Z,20.29
2022-10-05T14:31:03.248Z,20.29
2022-10-05T14:33:35.534Z,20.34
2022-10-05T14:36:16.353Z,20.39
2022-10-05T14:39:00.678Z,20.33
2022-10-05T14:41:37.222Z,20.03
2022-10-05T14:44:09.551Z,19.97
2022-10-05T14:46:55.976Z,19.93
2022-10-05T14:49:30.014Z,19.91
2022-10-05T14:52:23.499Z,19.82
2022-10-05T14:55:00.252Z,19.73
2022-10-05T14:57:48.264Z,19.54
2022-10-05T15:00:20.723Z,19.17
2022-10-05T15:03:08.060Z,18.56
2022-10-05T15:05:52.262Z,18.32
2022-10-05T15:08:31.197Z,18.22
2022-10-05T15:11:06.356Z,18.11
2022-10-05T15:13:42.074Z,18.02
2022-10-05T15:16:26.230Z,17.94
2022-10-05T15:19:04.753Z,17.64
2022-10-05T15:21:42.300Z,17.43
2022-10-05T15:24:20.339Z,17.22
2022-10-05T15:26:54.412Z,17.08
2022-10-05T15:29:49.852Z,17.13
2022-10-05T15:32:47.944Z,17.26
2022-10-05T15:35:26.337Z,17.30
2022-10-05T15:38:12.407Z,17.22
2022-10-05T15:40:47.761Z,17.07
2022-10-05T15:43:22.397Z,17.19
2022-10-05T15:46:12.412Z,17.19
2022-10-05T15:48:52.285Z,17.26
2022-10-05T15:51:27.297Z,17.20
2022-10-05T15:54:25.001Z,17.15
2022-10-05T15:56:59.270Z,17.20
2022-10-05T15:59:37.490Z,17.24
2022-10-05T16:02:19.553Z,17.17
2022-10-05T16:04:51.884Z,17.18
2022-10-05T16:07:46.596Z,17.18
2022-10-05T16:10:23.378Z,17.14
2022-10-05T16:13:14.232Z,17.11
2022-10-05T16:15:55.168Z,17.16
2022-10-05T16:18:47.100Z,17.12
2022-10-05T16:21:19.448Z,17.13
2022-10-05T16:23:54.804Z,17.11
2022-10-05T16:26:38.488Z,17.13
2022-10-05T16:29:19.793Z,17.16
2022-10-05T16:32:10.925Z,17.11
2022-10-05T16:34:46.284Z,17.11
2022-10-05T16:37:28.115Z,17.14
2022-10-05T16:40:11.413Z,17.10
2022-10-05T16:42:50.008Z,17.04
2022-10-05T16:45:45.499Z,17.14
2022-10-05T16:48:29.552Z,17.11
2022-10-05T16:51:07.611Z,17.07
2022-10-05T16:53:39.863Z,17.11
2022-10-05T16:56:15.002Z,17.13
2022-10-05T16:58:53.811Z,17.10
2022-10-05T17:01:43.252Z,17.10
2022-10-05T17:04:24.765Z,17.09
2022-10-05T17:06:57.010Z,17.10
2022-10-05T17:09:42.776Z,17.14
2022-10-05T17:12:15.150Z,17.14
2022-10-05T17:15:24.393Z,17.13
2022-10-05T17:18:02.673Z,17.15
2022-10-05T17:20:45.331Z,17.19
2022-10-05T17:23:30.205Z,17.14
2022-10-05T17:26:29.137Z,17.14
2022-10-05T17:29:16.529Z,17.18
2022-10-05T17:32:02.428Z,17.12
2022-10-05T17:34:36.407Z,17.15
2022-10-05T17:37:16.164Z,17.17
2022-10-05T17:39:50.323Z,17.14
2022-10-05T17:42:25.629Z,17.16
2022-10-05T17:44:59.183Z,17.14
2022-10-05T17:47:50.471Z,17.11
2022-10-05T17:50:56.923Z,17.09
2022-10-05T17:53:55.396Z,17.10
2022-10-05T17:56:28.448Z,17.12
2022-10-05T17:59:03.083Z,17.14
2022-10-05T18:01:39.784Z,17.17
2022-10-05T18:04:12.053Z,17.20
2022-10-05T18:06:48.071Z,17.27
2022-10-05T18:09:23.450Z,17.32
2022-10-05T18:12:15.516Z,17.30
2022-10-05T18:14:50.856Z,17.36
2022-10-05T18:17:46.021Z,17.33
2022-10-05T18:20:27.027Z,17.29
2022-10-05T18:23:09.564Z,17.41
2022-10-05T18:26:01.385Z,17.42
2022-10-05T18:28:52.679Z,17.38
2022-10-05T18:31:35.940Z,17.44
2022-10-05T18:34:29.783Z,17.44
2022-10-05T18:37:21.479Z,17.45
2022-10-05T18:40:02.992Z,17.43
2022-10-05T18:42:41.358Z,17.44
2022-10-05T18:45:52.317Z,17.43
2022-10-05T18:48:31.056Z,17.42
2022-10-05T18:51:06.348Z,17.48
2022-10-05T18:53:41.628Z,17.46
2022-10-05T18:56:33.812Z,17.48
2022-10-05T18:59:09.255Z,17.47
2022-10-05T19:02:06.159Z,17.45
2022-10-05T19:04:54.594Z,17.44
2022-10-05T19:07:52.876Z,17.50
2022-10-05T19:10:40.015Z,17.48
2022-10-05T19:13:35.340Z,17.49
2022-10-05T19:16:13.748Z,17.50
2022-10-05T19:19:04.907Z,17.48
2022-10-05T19:21:58.782Z,17.46
2022-10-05T19:24:44.302Z,17.53
2022-10-05T19:27:27.395Z,17.61
2022-10-05T19:30:18.612Z,17.56
2022-10-05T19:33:00.181Z,17.64
2022-10-05T19:35:51.511Z,17.63
2022-10-05T19:38:34.037Z,17.65
2022-10-05T19:41:31.059Z,17.66
2022-10-05T19:44:26.755Z,17.65
2022-10-05T19:47:02.335Z,17.72
2022-10-05T19:49:36.482Z,17.75
2022-10-05T19:52:11.288Z,17.76
2022-10-05T19:55:01.707Z,17.83
2022-10-05T19:57:36.593Z,17.78
2022-10-05T20:00:36.858Z,17.45
2022-10-05T20:03:12.846Z,16.54
2022-10-05T20:06:09.576Z,15.79
2022-10-05T20:08:51.811Z,15.34
2022-10-05T20:11:27.630Z,15.13
2022-10-05T20:14:10.264Z,15.01
2022-10-05T20:19:55.992Z,14.93
2022-10-05T20:22:40.816Z,14.95
2022-10-05T20:25:18.921Z,14.98
2022-10-05T20:27:52.650Z,15.06
2022-10-05T20:30:28.885Z,15.11
2022-10-05T20:33:01.774Z,15.12
2022-10-05T20:35:34.047Z,15.12
2022-10-05T20:38:06.354Z,15.14
2022-10-05T20:40:39.899Z,15.13
2022-10-05T20:43:12.504Z,15.15
2022-10-05T20:45:44.994Z,15.18
2022-10-05T20:48:19.847Z,15.14
2022-10-05T20:50:52.100Z,15.11
2022-10-05T20:53:24.400Z,15.05
2022-10-05T20:55:59.723Z,14.99
2022-10-05T20:58:32.052Z,15.04
2022-10-05T21:01:23.173Z,15.04
2022-10-05T21:03:55.820Z,15.17
2022-10-05T21:06:28.616Z,15.16
2022-10-05T21:09:00.964Z,15.14
2022-10-05T21:11:33.258Z,15.25
2022-10-05T21:14:07.156Z,15.35
2022-10-05T21:16:41.123Z,15.43
2022-10-05T21:19:14.067Z,15.40
2022-10-05T21:21:47.661Z,15.50
2022-10-05T21:24:19.963Z,15.40
2022-10-05T21:26:55.429Z,15.08
2022-10-05T21:29:28.245Z,14.71
2022-10-05T21:32:00.586Z,14.46
2022-10-05T21:34:32.951Z,14.20
2022-10-05T21:37:05.271Z,13.95
2022-10-05T21:39:37.650Z,13.67
2022-10-05T21:42:09.924Z,13.27
2022-10-05T21:44:42.192Z,13.07
2022-10-05T21:47:14.462Z,12.96
2022-10-05T21:49:46.726Z,12.85
2022-10-05T21:52:19.380Z,12.73
2022-10-05T21:54:51.814Z,12.66
2022-10-05T21:57:26.678Z,12.54
2022-10-05T21:59:59.189Z,12.45
2022-10-05T22:02:37.408Z,12.38
2022-10-05T22:05:09.750Z,12.33
2022-10-05T22:07:42.036Z,12.30
2022-10-05T22:10:14.457Z,12.29
2022-10-05T22:12:49.231Z,12.27
2022-10-05T22:15:21.832Z,12.28
2022-10-05T22:17:54.237Z,12.28
2022-10-05T22:20:26.813Z,12.28
2022-10-05T22:22:59.037Z,12.31
2022-10-05T22:25:33.794Z,12.31
2022-10-05T22:28:09.021Z,12.41
2022-10-05T22:30:43.724Z,12.54
2022-10-05T22:33:16.217Z,12.56
2022-10-05T22:35:48.553Z,12.57
2022-10-05T22:38:20.911Z,12.66
2022-10-05T22:40:53.191Z,12.60
2022-10-05T22:43:28.895Z,12.65
2022-10-05T22:46:06.860Z,12.63
2022-10-05T22:48:39.418Z,12.62
2022-10-05T22:51:11.991Z,12.54
2022-10-05T22:53:44.499Z,12.47
2022-10-05T22:56:16.794Z,12.39
2022-10-05T22:58:50.949Z,12.39
2022-10-05T23:01:23.230Z,12.37
2022-10-05T23:03:57.129Z,12.36
2022-10-05T23:06:31.656Z,12.39
2022-10-05T23:09:04.035Z,12.39
2022-10-05T23:11:36.285Z,12.51
2022-10-05T23:14:08.568Z,12.51
2022-10-05T23:16:40.919Z,12.51
2022-10-05T23:19:13.645Z,12.50
2022-10-05T23:21:46.092Z,12.52
2022-10-05T23:24:18.396Z,12.46
2022-10-05T23:26:50.644Z,12.45
2022-10-05T23:29:23.302Z,12.45
2022-10-05T23:31:55.578Z,12.60
2022-10-05T23:34:29.298Z,12.72
2022-10-05T23:37:01.776Z,12.78
2022-10-05T23:39:34.053Z,12.88
2022-10-05T23:42:06.409Z,12.81
2022-10-05T23:44:38.730Z,12.76
2022-10-05T23:47:10.993Z,12.66
2022-10-05T23:49:46.271Z,12.66
2022-10-05T23:52:18.544Z,12.62
2022-10-05T23:54:50.825Z,12.62
2022-10-05T23:57:23.103Z,12.64
2022-10-05T23:59:56.331Z,12.62
